sensor_id;sensor_type;location;lat;lon;timestamp;P1;durP1;ratioP1;P2;durP2;ratioP2
47790;SDS011;33547;49.044;1.156;2022-07-12T00:01:56;1.35;;;0.65;;
47790;SDS011;33547;49.044;1.156;2022-07-12T00:04:21;1.20;;;0.60;;
47790;SDS011;33547;49.044;1.156;2022-07-12T00:06:47;0.98;;;0.82;;
47790;SDS011;33547;49.044;1.156;2022-07-12T00:09:13;0.63;;;0.63;;
47790;SDS011;33547;49.044;1.156;2022-07-12T00:11:39;1.33;;;0.55;;
47790;SDS011;33547;49.044;1.156;2022-07-12T00:14:05;0.50;;;0.50;;
47790;SDS011;33547;49.044;1.156;2022-07-12T00:16:31;1.15;;;0.77;;
47790;SDS011;33547;49.044;1.156;2022-07-12T00:18:57;1.13;;;0.70;;
47790;SDS011;33547;49.044;1.156;2022-07-12T00:21:23;1.27;;;0.60;;
47790;SDS011;33547;49.044;1.156;2022-07-12T00:23:50;0.55;;;0.50;;
47790;SDS011;33547;49.044;1.156;2022-07-12T00:26:15;0.70;;;0.70;;
47790;SDS011;33547;49.044;1.156;2022-07-12T00:28:41;0.93;;;0.50;;
47790;SDS011;33547;49.044;1.156;2022-07-12T00:31:07;2.00;;;0.60;;
47790;SDS011;33547;49.044;1.156;2022-07-12T00:33:33;0.93;;;0.45;;
47790;SDS011;33547;49.044;1.156;2022-07-12T00:36:00;0.77;;;0.50;;
47790;SDS011;33547;49.044;1.156;2022-07-12T00:38:26;1.48;;;0.65;;
47790;SDS011;33547;49.044;1.156;2022-07-12T00:40:52;0.77;;;0.65;;
47790;SDS011;33547;49.044;1.156;2022-07-12T00:43:18;0.73;;;0.60;;
47790;SDS011;33547;49.044;1.156;2022-07-12T00:45:43;0.50;;;0.50;;
47790;SDS011;33547;49.044;1.156;2022-07-12T00:48:09;1.02;;;0.85;;
47790;SDS011;33547;49.044;1.156;2022-07-12T00:50:36;0.77;;;0.77;;
47790;SDS011;33547;49.044;1.156;2022-07-12T00:53:02;0.68;;;0.52;;
47790;SDS011;33547;49.044;1.156;2022-07-12T00:55:28;0.73;;;0.60;;
47790;SDS011;33547;49.044;1.156;2022-07-12T00:57:54;0.88;;;0.63;;
47790;SDS011;33547;49.044;1.156;2022-07-12T01:00:21;1.70;;;0.77;;
47790;SDS011;33547;49.044;1.156;2022-07-12T01:02:50;0.68;;;0.68;;
47790;SDS011;33547;49.044;1.156;2022-07-12T01:05:19;0.80;;;0.50;;
47790;SDS011;33547;49.044;1.156;2022-07-12T01:07:45;0.98;;;0.82;;
47790;SDS011;33547;49.044;1.156;2022-07-12T01:10:11;1.38;;;0.63;;
47790;SDS011;33547;49.044;1.156;2022-07-12T01:12:37;0.50;;;0.50;;
47790;SDS011;33547;49.044;1.156;2022-07-12T01:15:06;0.60;;;0.60;;
47790;SDS011;33547;49.044;1.156;2022-07-12T01:17:33;0.60;;;0.60;;
47790;SDS011;33547;49.044;1.156;2022-07-12T01:20:00;0.40;;;0.40;;
47790;SDS011;33547;49.044;1.156;2022-07-12T01:22:30;0.52;;;0.52;;
47790;SDS011;33547;49.044;1.156;2022-07-12T01:25:01;0.77;;;0.50;;
47790;SDS011;33547;49.044;1.156;2022-07-12T01:27:29;0.98;;;0.50;;
47790;SDS011;33547;49.044;1.156;2022-07-12T01:29:56;0.52;;;0.52;;
47790;SDS011;33547;49.044;1.156;2022-07-12T01:32:22;0.90;;;0.60;;
47790;SDS011;33547;49.044;1.156;2022-07-12T01:34:52;1.23;;;0.68;;
47790;SDS011;33547;49.044;1.156;2022-07-12T01:37:30;0.60;;;0.60;;
47790;SDS011;33547;49.044;1.156;2022-07-12T01:40:10;0.50;;;0.50;;
47790;SDS011;33547;49.044;1.156;2022-07-12T01:42:38;0.75;;;0.52;;
47790;SDS011;33547;49.044;1.156;2022-07-12T01:45:04;0.50;;;0.50;;
47790;SDS011;33547;49.044;1.156;2022-07-12T01:47:32;0.70;;;0.50;;
47790;SDS011;33547;49.044;1.156;2022-07-12T01:49:59;0.60;;;0.60;;
47790;SDS011;33547;49.044;1.156;2022-07-12T01:52:25;0.73;;;0.60;;
47790;SDS011;33547;49.044;1.156;2022-07-12T01:54:52;0.85;;;0.50;;
47790;SDS011;33547;49.044;1.156;2022-07-12T01:57:19;0.90;;;0.60;;
47790;SDS011;33547;49.044;1.156;2022-07-12T01:59:45;0.75;;;0.60;;
47790;SDS011;33547;49.044;1.156;2022-07-12T02:02:11;0.60;;;0.60;;
47790;SDS011;33547;49.044;1.156;2022-07-12T02:04:37;1.35;;;0.63;;
47790;SDS011;33547;49.044;1.156;2022-07-12T02:07:03;0.65;;;0.65;;
47790;SDS011;33547;49.044;1.156;2022-07-12T02:09:30;0.50;;;0.50;;
47790;SDS011;33547;49.044;1.156;2022-07-12T02:11:56;1.33;;;0.73;;
47790;SDS011;33547;49.044;1.156;2022-07-12T02:14:23;0.40;;;0.40;;
47790;SDS011;33547;49.044;1.156;2022-07-12T02:16:49;0.63;;;0.60;;
47790;SDS011;33547;49.044;1.156;2022-07-12T02:19:15;0.73;;;0.73;;
47790;SDS011;33547;49.044;1.156;2022-07-12T02:21:41;0.93;;;0.60;;
47790;SDS011;33547;49.044;1.156;2022-07-12T02:24:07;0.85;;;0.60;;
47790;SDS011;33547;49.044;1.156;2022-07-12T02:26:36;0.40;;;0.40;;
47790;SDS011;33547;49.044;1.156;2022-07-12T02:29:02;0.85;;;0.40;;
47790;SDS011;33547;49.044;1.156;2022-07-12T02:31:30;0.40;;;0.40;;
47790;SDS011;33547;49.044;1.156;2022-07-12T02:33:56;0.70;;;0.50;;
47790;SDS011;33547;49.044;1.156;2022-07-12T02:36:22;0.68;;;0.55;;
47790;SDS011;33547;49.044;1.156;2022-07-12T02:38:48;1.80;;;0.80;;
47790;SDS011;33547;49.044;1.156;2022-07-12T02:41:14;0.85;;;0.68;;
47790;SDS011;33547;49.044;1.156;2022-07-12T02:43:40;0.70;;;0.60;;
47790;SDS011;33547;49.044;1.156;2022-07-12T02:46:07;1.10;;;0.90;;
47790;SDS011;33547;49.044;1.156;2022-07-12T02:48:35;0.80;;;0.80;;
47790;SDS011;33547;49.044;1.156;2022-07-12T02:51:02;0.63;;;0.38;;
47790;SDS011;33547;49.044;1.156;2022-07-12T02:53:29;0.40;;;0.40;;
47790;SDS011;33547;49.044;1.156;2022-07-12T02:55:55;0.50;;;0.47;;
47790;SDS011;33547;49.044;1.156;2022-07-12T02:58:21;0.93;;;0.60;;
47790;SDS011;33547;49.044;1.156;2022-07-12T03:00:47;0.60;;;0.47;;
47790;SDS011;33547;49.044;1.156;2022-07-12T03:03:13;0.55;;;0.55;;
47790;SDS011;33547;49.044;1.156;2022-07-12T03:05:40;0.63;;;0.60;;
47790;SDS011;33547;49.044;1.156;2022-07-12T03:08:07;0.50;;;0.47;;
47790;SDS011;33547;49.044;1.156;2022-07-12T03:10:34;0.45;;;0.45;;
47790;SDS011;33547;49.044;1.156;2022-07-12T03:13:00;0.55;;;0.55;;
47790;SDS011;33547;49.044;1.156;2022-07-12T03:15:27;0.68;;;0.60;;
47790;SDS011;33547;49.044;1.156;2022-07-12T03:17:54;0.50;;;0.50;;
47790;SDS011;33547;49.044;1.156;2022-07-12T03:20:20;0.98;;;0.88;;
47790;SDS011;33547;49.044;1.156;2022-07-12T03:22:46;1.60;;;0.60;;
47790;SDS011;33547;49.044;1.156;2022-07-12T03:25:15;0.70;;;0.52;;
47790;SDS011;33547;49.044;1.156;2022-07-12T03:27:41;0.57;;;0.55;;
47790;SDS011;33547;49.044;1.156;2022-07-12T03:30:07;0.60;;;0.50;;
47790;SDS011;33547;49.044;1.156;2022-07-12T03:32:34;0.50;;;0.50;;
47790;SDS011;33547;49.044;1.156;2022-07-12T03:35:00;0.65;;;0.65;;
47790;SDS011;33547;49.044;1.156;2022-07-12T03:37:27;1.25;;;0.80;;
47790;SDS011;33547;49.044;1.156;2022-07-12T03:40:03;0.85;;;0.70;;
47790;SDS011;33547;49.044;1.156;2022-07-12T03:42:29;1.27;;;0.63;;
47790;SDS011;33547;49.044;1.156;2022-07-12T03:44:55;0.85;;;0.70;;
47790;SDS011;33547;49.044;1.156;2022-07-12T03:47:20;0.30;;;0.30;;
47790;SDS011;33547;49.044;1.156;2022-07-12T03:49:46;0.93;;;0.70;;
47790;SDS011;33547;49.044;1.156;2022-07-12T03:52:12;0.70;;;0.70;;
47790;SDS011;33547;49.044;1.156;2022-07-12T03:54:38;0.50;;;0.50;;
47790;SDS011;33547;49.044;1.156;2022-07-12T03:57:04;0.40;;;0.40;;
47790;SDS011;33547;49.044;1.156;2022-07-12T03:59:39;0.45;;;0.45;;
47790;SDS011;33547;49.044;1.156;2022-07-12T04:02:09;0.55;;;0.55;;
47790;SDS011;33547;49.044;1.156;2022-07-12T04:04:36;0.50;;;0.50;;
47790;SDS011;33547;49.044;1.156;2022-07-12T04:07:02;0.40;;;0.40;;
47790;SDS011;33547;49.044;1.156;2022-07-12T04:09:28;0.47;;;0.47;;
47790;SDS011;33547;49.044;1.156;2022-07-12T04:11:54;0.63;;;0.50;;
47790;SDS011;33547;49.044;1.156;2022-07-12T04:14:20;0.60;;;0.57;;
47790;SDS011;33547;49.044;1.156;2022-07-12T04:16:46;0.60;;;0.60;;
47790;SDS011;33547;49.044;1.156;2022-07-12T04:19:11;0.82;;;0.60;;
47790;SDS011;33547;49.044;1.156;2022-07-12T04:21:37;1.13;;;0.77;;
47790;SDS011;33547;49.044;1.156;2022-07-12T04:24:04;2.58;;;0.60;;
47790;SDS011;33547;49.044;1.156;2022-07-12T04:26:31;1.83;;;1.00;;
47790;SDS011;33547;49.044;1.156;2022-07-12T04:28:57;2.75;;;1.10;;
47790;SDS011;33547;49.044;1.156;2022-07-12T04:31:23;1.42;;;1.17;;
47790;SDS011;33547;49.044;1.156;2022-07-12T04:33:49;1.85;;;1.30;;
47790;SDS011;33547;49.044;1.156;2022-07-12T04:36:15;2.58;;;1.25;;
47790;SDS011;33547;49.044;1.156;2022-07-12T04:38:41;3.45;;;1.17;;
47790;SDS011;33547;49.044;1.156;2022-07-12T04:41:07;3.90;;;1.48;;
47790;SDS011;33547;49.044;1.156;2022-07-12T04:43:33;1.35;;;1.15;;
47790;SDS011;33547;49.044;1.156;2022-07-12T04:46:05;1.40;;;1.05;;
47790;SDS011;33547;49.044;1.156;2022-07-12T04:48:32;1.45;;;1.02;;
47790;SDS011;33547;49.044;1.156;2022-07-12T04:50:58;1.60;;;1.17;;
47790;SDS011;33547;49.044;1.156;2022-07-12T04:53:24;4.63;;;1.40;;
47790;SDS011;33547;49.044;1.156;2022-07-12T04:55:49;2.22;;;1.33;;
47790;SDS011;33547;49.044;1.156;2022-07-12T04:58:15;1.85;;;1.20;;
47790;SDS011;33547;49.044;1.156;2022-07-12T05:00:41;1.85;;;1.20;;
47790;SDS011;33547;49.044;1.156;2022-07-12T05:03:08;3.42;;;1.40;;
47790;SDS011;33547;49.044;1.156;2022-07-12T05:05:34;2.50;;;1.30;;
47790;SDS011;33547;49.044;1.156;2022-07-12T05:07:59;1.88;;;1.20;;
47790;SDS011;33547;49.044;1.156;2022-07-12T05:10:25;1.98;;;1.08;;
47790;SDS011;33547;49.044;1.156;2022-07-12T05:12:51;3.83;;;1.20;;
47790;SDS011;33547;49.044;1.156;2022-07-12T05:15:17;1.50;;;1.20;;
47790;SDS011;33547;49.044;1.156;2022-07-12T05:17:43;2.58;;;1.30;;
47790;SDS011;33547;49.044;1.156;2022-07-12T05:20:09;1.73;;;1.27;;
47790;SDS011;33547;49.044;1.156;2022-07-12T05:22:35;3.33;;;1.35;;
47790;SDS011;33547;49.044;1.156;2022-07-12T05:25:01;3.28;;;1.67;;
47790;SDS011;33547;49.044;1.156;2022-07-12T05:27:29;3.28;;;1.38;;
47790;SDS011;33547;49.044;1.156;2022-07-12T05:29:55;3.75;;;1.60;;
47790;SDS011;33547;49.044;1.156;2022-07-12T05:32:22;5.50;;;1.63;;
47790;SDS011;33547;49.044;1.156;2022-07-12T05:34:48;3.72;;;1.50;;
47790;SDS011;33547;49.044;1.156;2022-07-12T05:37:15;4.30;;;1.23;;
47790;SDS011;33547;49.044;1.156;2022-07-12T05:39:40;4.55;;;1.85;;
47790;SDS011;33547;49.044;1.156;2022-07-12T05:42:06;2.22;;;1.05;;
47790;SDS011;33547;49.044;1.156;2022-07-12T05:44:32;2.22;;;1.55;;
47790;SDS011;33547;49.044;1.156;2022-07-12T05:46:58;2.90;;;1.40;;
47790;SDS011;33547;49.044;1.156;2022-07-12T05:49:23;2.42;;;1.40;;
47790;SDS011;33547;49.044;1.156;2022-07-12T05:51:49;1.98;;;1.42;;
47790;SDS011;33547;49.044;1.156;2022-07-12T05:54:33;2.75;;;1.13;;
47790;SDS011;33547;49.044;1.156;2022-07-12T05:56:59;1.85;;;0.95;;
47790;SDS011;33547;49.044;1.156;2022-07-12T05:59:25;2.83;;;1.35;;
47790;SDS011;33547;49.044;1.156;2022-07-12T06:01:50;2.03;;;1.00;;
47790;SDS011;33547;49.044;1.156;2022-07-12T06:04:16;1.38;;;1.08;;
47790;SDS011;33547;49.044;1.156;2022-07-12T06:06:42;1.35;;;1.10;;
47790;SDS011;33547;49.044;1.156;2022-07-12T06:09:08;1.15;;;0.93;;
47790;SDS011;33547;49.044;1.156;2022-07-12T06:11:33;1.33;;;1.20;;
47790;SDS011;33547;49.044;1.156;2022-07-12T06:13:59;1.45;;;0.98;;
47790;SDS011;33547;49.044;1.156;2022-07-12T06:16:25;2.03;;;1.27;;
47790;SDS011;33547;49.044;1.156;2022-07-12T06:18:51;1.35;;;1.00;;
47790;SDS011;33547;49.044;1.156;2022-07-12T06:21:16;1.65;;;1.08;;
47790;SDS011;33547;49.044;1.156;2022-07-12T06:23:42;1.08;;;1.00;;
47790;SDS011;33547;49.044;1.156;2022-07-12T06:26:08;1.30;;;1.13;;
47790;SDS011;33547;49.044;1.156;2022-07-12T06:28:33;1.88;;;1.15;;
47790;SDS011;33547;49.044;1.156;2022-07-12T06:31:00;1.42;;;1.23;;
47790;SDS011;33547;49.044;1.156;2022-07-12T06:33:26;3.67;;;1.17;;
47790;SDS011;33547;49.044;1.156;2022-07-12T06:35:52;1.67;;;1.02;;
47790;SDS011;33547;49.044;1.156;2022-07-12T06:38:18;2.17;;;1.27;;
47790;SDS011;33547;49.044;1.156;2022-07-12T06:40:43;1.20;;;1.00;;
47790;SDS011;33547;49.044;1.156;2022-07-12T06:43:09;1.67;;;0.90;;
47790;SDS011;33547;49.044;1.156;2022-07-12T06:45:37;2.92;;;1.00;;
47790;SDS011;33547;49.044;1.156;2022-07-12T06:48:03;1.40;;;0.80;;
47790;SDS011;33547;49.044;1.156;2022-07-12T06:50:29;1.45;;;1.17;;
47790;SDS011;33547;49.044;1.156;2022-07-12T06:52:55;1.58;;;1.13;;
47790;SDS011;33547;49.044;1.156;2022-07-12T06:55:22;1.35;;;1.10;;
47790;SDS011;33547;49.044;1.156;2022-07-12T06:57:48;1.67;;;1.00;;
47790;SDS011;33547;49.044;1.156;2022-07-12T07:00:13;1.30;;;0.90;;
47790;SDS011;33547;49.044;1.156;2022-07-12T07:02:39;1.25;;;1.15;;
47790;SDS011;33547;49.044;1.156;2022-07-12T07:05:05;1.17;;;1.05;;
47790;SDS011;33547;49.044;1.156;2022-07-12T07:07:32;2.53;;;1.13;;
47790;SDS011;33547;49.044;1.156;2022-07-12T07:09:58;0.90;;;0.90;;
47790;SDS011;33547;49.044;1.156;2022-07-12T07:12:24;1.00;;;1.00;;
47790;SDS011;33547;49.044;1.156;2022-07-12T07:14:50;1.02;;;0.90;;
47790;SDS011;33547;49.044;1.156;2022-07-12T07:17:17;2.88;;;0.98;;
47790;SDS011;33547;49.044;1.156;2022-07-12T07:19:44;1.73;;;0.98;;
47790;SDS011;33547;49.044;1.156;2022-07-12T07:22:11;1.23;;;0.77;;
47790;SDS011;33547;49.044;1.156;2022-07-12T07:24:38;1.20;;;0.80;;
47790;SDS011;33547;49.044;1.156;2022-07-12T07:27:05;3.25;;;0.90;;
47790;SDS011;33547;49.044;1.156;2022-07-12T07:29:31;1.08;;;0.95;;
47790;SDS011;33547;49.044;1.156;2022-07-12T07:32:15;1.05;;;0.80;;
47790;SDS011;33547;49.044;1.156;2022-07-12T07:34:41;1.08;;;0.90;;
47790;SDS011;33547;49.044;1.156;2022-07-12T07:37:07;1.15;;;0.70;;
47790;SDS011;33547;49.044;1.156;2022-07-12T07:39:33;1.40;;;0.70;;
47790;SDS011;33547;49.044;1.156;2022-07-12T07:42:00;0.82;;;0.75;;
47790;SDS011;33547;49.044;1.156;2022-07-12T07:44:26;0.80;;;0.60;;
47790;SDS011;33547;49.044;1.156;2022-07-12T07:46:52;2.83;;;0.60;;
47790;SDS011;33547;49.044;1.156;2022-07-12T07:49:18;0.80;;;0.70;;
47790;SDS011;33547;49.044;1.156;2022-07-12T07:51:44;1.30;;;0.82;;
47790;SDS011;33547;49.044;1.156;2022-07-12T07:54:10;2.15;;;1.00;;
47790;SDS011;33547;49.044;1.156;2022-07-12T07:56:36;0.73;;;0.73;;
47790;SDS011;33547;49.044;1.156;2022-07-12T07:59:01;0.80;;;0.80;;
47790;SDS011;33547;49.044;1.156;2022-07-12T08:01:27;1.30;;;0.70;;
47790;SDS011;33547;49.044;1.156;2022-07-12T08:04:13;0.77;;;0.70;;
47790;SDS011;33547;49.044;1.156;2022-07-12T08:06:40;1.73;;;0.80;;
47790;SDS011;33547;49.044;1.156;2022-07-12T08:09:07;0.85;;;0.70;;
47790;SDS011;33547;49.044;1.156;2022-07-12T08:11:34;0.90;;;0.70;;
47790;SDS011;33547;49.044;1.156;2022-07-12T08:14:00;0.77;;;0.70;;
47790;SDS011;33547;49.044;1.156;2022-07-12T08:16:28;0.60;;;0.60;;
47790;SDS011;33547;49.044;1.156;2022-07-12T08:18:54;1.20;;;0.80;;
47790;SDS011;33547;49.044;1.156;2022-07-12T08:21:19;1.00;;;0.75;;
47790;SDS011;33547;49.044;1.156;2022-07-12T08:23:45;1.63;;;0.82;;
47790;SDS011;33547;49.044;1.156;2022-07-12T08:26:11;0.68;;;0.57;;
47790;SDS011;33547;49.044;1.156;2022-07-12T08:28:37;0.70;;;0.68;;
47790;SDS011;33547;49.044;1.156;2022-07-12T08:31:03;0.60;;;0.60;;
47790;SDS011;33547;49.044;1.156;2022-07-12T08:33:29;3.03;;;1.17;;
47790;SDS011;33547;49.044;1.156;2022-07-12T08:35:55;19.58;;;2.58;;
47790;SDS011;33547;49.044;1.156;2022-07-12T08:38:20;1.90;;;1.08;;
47790;SDS011;33547;49.044;1.156;2022-07-12T08:40:46;3.05;;;0.90;;
47790;SDS011;33547;49.044;1.156;2022-07-12T08:43:12;3.75;;;0.70;;
47790;SDS011;33547;49.044;1.156;2022-07-12T08:45:39;2.38;;;1.00;;
47790;SDS011;33547;49.044;1.156;2022-07-12T08:48:08;2.10;;;0.70;;
47790;SDS011;33547;49.044;1.156;2022-07-12T08:50:34;2.38;;;1.00;;
47790;SDS011;33547;49.044;1.156;2022-07-12T08:53:01;3.50;;;1.10;;
47790;SDS011;33547;49.044;1.156;2022-07-12T08:58:02;3.05;;;1.10;;
47790;SDS011;33547;49.044;1.156;2022-07-12T09:00:33;3.20;;;0.75;;
47790;SDS011;33547;49.044;1.156;2022-07-12T09:03:00;3.22;;;0.80;;
47790;SDS011;33547;49.044;1.156;2022-07-12T09:05:29;2.28;;;0.60;;
47790;SDS011;33547;49.044;1.156;2022-07-12T09:10:35;1.27;;;0.82;;
47790;SDS011;33547;49.044;1.156;2022-07-12T09:13:45;1.95;;;0.80;;
47790;SDS011;33547;49.044;1.156;2022-07-12T09:16:19;1.05;;;0.70;;
47790;SDS011;33547;49.044;1.156;2022-07-12T09:18:47;0.73;;;0.73;;
47790;SDS011;33547;49.044;1.156;2022-07-12T09:21:26;0.88;;;0.77;;
47790;SDS011;33547;49.044;1.156;2022-07-12T09:23:57;0.90;;;0.80;;
47790;SDS011;33547;49.044;1.156;2022-07-12T09:26:29;0.80;;;0.65;;
47790;SDS011;33547;49.044;1.156;2022-07-12T09:29:05;2.08;;;0.90;;
47790;SDS011;33547;49.044;1.156;2022-07-12T09:31:42;2.57;;;0.90;;
47790;SDS011;33547;49.044;1.156;2022-07-12T09:34:31;0.75;;;0.70;;
47790;SDS011;33547;49.044;1.156;2022-07-12T09:37:15;0.57;;;0.57;;
47790;SDS011;33547;49.044;1.156;2022-07-12T09:39:42;1.27;;;0.57;;
47790;SDS011;33547;49.044;1.156;2022-07-12T09:42:08;0.57;;;0.57;;
47790;SDS011;33547;49.044;1.156;2022-07-12T09:44:36;0.40;;;0.40;;
47790;SDS011;33547;49.044;1.156;2022-07-12T09:47:10;0.85;;;0.60;;
47790;SDS011;33547;49.044;1.156;2022-07-12T09:49:40;0.80;;;0.75;;
47790;SDS011;33547;49.044;1.156;2022-07-12T09:52:12;0.65;;;0.60;;
47790;SDS011;33547;49.044;1.156;2022-07-12T09:54:46;1.80;;;0.60;;
47790;SDS011;33547;49.044;1.156;2022-07-12T09:57:29;1.55;;;0.60;;
47790;SDS011;33547;49.044;1.156;2022-07-12T09:59:58;0.85;;;0.50;;
47790;SDS011;33547;49.044;1.156;2022-07-12T10:02:25;0.50;;;0.50;;
47790;SDS011;33547;49.044;1.156;2022-07-12T10:04:53;1.25;;;0.75;;
47790;SDS011;33547;49.044;1.156;2022-07-12T10:07:20;0.50;;;0.40;;
47790;SDS011;33547;49.044;1.156;2022-07-12T10:09:47;0.60;;;0.50;;
47790;SDS011;33547;49.044;1.156;2022-07-12T10:12:17;1.13;;;0.63;;
47790;SDS011;33547;49.044;1.156;2022-07-12T10:14:45;1.67;;;0.50;;
47790;SDS011;33547;49.044;1.156;2022-07-12T10:17:14;0.70;;;0.60;;
47790;SDS011;33547;49.044;1.156;2022-07-12T10:19:47;0.87;;;0.60;;
47790;SDS011;33547;49.044;1.156;2022-07-12T10:22:20;0.77;;;0.77;;
47790;SDS011;33547;49.044;1.156;2022-07-12T10:24:47;0.65;;;0.55;;
47790;SDS011;33547;49.044;1.156;2022-07-12T10:29:43;0.98;;;0.88;;
47790;SDS011;33547;49.044;1.156;2022-07-12T10:32:21;1.02;;;0.57;;
47790;SDS011;33547;49.044;1.156;2022-07-12T10:34:58;1.95;;;0.60;;
47790;SDS011;33547;49.044;1.156;2022-07-12T10:37:26;0.43;;;0.40;;
47790;SDS011;33547;49.044;1.156;2022-07-12T10:40:12;0.50;;;0.50;;
47790;SDS011;33547;49.044;1.156;2022-07-12T10:43:12;0.50;;;0.50;;
47790;SDS011;33547;49.044;1.156;2022-07-12T10:45:39;1.00;;;0.68;;
47790;SDS011;33547;49.044;1.156;2022-07-12T10:58:31;0.65;;;0.50;;
47790;SDS011;33547;49.044;1.156;2022-07-12T11:01:04;0.77;;;0.77;;
47790;SDS011;33547;49.044;1.156;2022-07-12T11:03:36;0.57;;;0.45;;
47790;SDS011;33547;49.044;1.156;2022-07-12T11:06:21;0.40;;;0.40;;
47790;SDS011;33547;49.044;1.156;2022-07-12T11:11:29;0.40;;;0.38;;
47790;SDS011;33547;49.044;1.156;2022-07-12T11:14:22;0.95;;;0.60;;
47790;SDS011;33547;49.044;1.156;2022-07-12T11:16:57;0.60;;;0.60;;
47790;SDS011;33547;49.044;1.156;2022-07-12T11:19:25;0.90;;;0.60;;
47790;SDS011;33547;49.044;1.156;2022-07-12T11:21:57;0.47;;;0.47;;
47790;SDS011;33547;49.044;1.156;2022-07-12T11:24:24;0.57;;;0.40;;
47790;SDS011;33547;49.044;1.156;2022-07-12T11:26:53;0.70;;;0.32;;
47790;SDS011;33547;49.044;1.156;2022-07-12T11:29:19;0.73;;;0.60;;
47790;SDS011;33547;49.044;1.156;2022-07-12T11:31:45;2.15;;;0.70;;
47790;SDS011;33547;49.044;1.156;2022-07-12T11:36:52;0.43;;;0.43;;
47790;SDS011;33547;49.044;1.156;2022-07-12T11:42:16;0.40;;;0.40;;
47790;SDS011;33547;49.044;1.156;2022-07-12T11:44:45;0.75;;;0.50;;
47790;SDS011;33547;49.044;1.156;2022-07-12T11:49:50;1.73;;;0.50;;
47790;SDS011;33547;49.044;1.156;2022-07-12T11:52:18;0.30;;;0.30;;
47790;SDS011;33547;49.044;1.156;2022-07-12T11:54:48;0.60;;;0.60;;
47790;SDS011;33547;49.044;1.156;2022-07-12T11:57:18;0.57;;;0.43;;
47790;SDS011;33547;49.044;1.156;2022-07-12T11:59:46;0.63;;;0.40;;
47790;SDS011;33547;49.044;1.156;2022-07-12T12:02:13;0.60;;;0.60;;
47790;SDS011;33547;49.044;1.156;2022-07-12T12:04:44;0.45;;;0.45;;
47790;SDS011;33547;49.044;1.156;2022-07-12T12:07:14;0.95;;;0.43;;
47790;SDS011;33547;49.044;1.156;2022-07-12T12:12:36;0.38;;;0.38;;
47790;SDS011;33547;49.044;1.156;2022-07-12T12:15:29;0.77;;;0.40;;
47790;SDS011;33547;49.044;1.156;2022-07-12T12:18:01;1.52;;;0.80;;
47790;SDS011;33547;49.044;1.156;2022-07-12T12:20:30;0.40;;;0.40;;
47790;SDS011;33547;49.044;1.156;2022-07-12T12:23:17;1.02;;;0.52;;
47790;SDS011;33547;49.044;1.156;2022-07-12T12:25:44;0.55;;;0.40;;
47790;SDS011;33547;49.044;1.156;2022-07-12T12:28:11;0.50;;;0.40;;
47790;SDS011;33547;49.044;1.156;2022-07-12T12:33:41;0.40;;;0.40;;
47790;SDS011;33547;49.044;1.156;2022-07-12T12:38:50;0.60;;;0.57;;
47790;SDS011;33547;49.044;1.156;2022-07-12T12:41:18;0.82;;;0.52;;
47790;SDS011;33547;49.044;1.156;2022-07-12T12:43:47;0.63;;;0.60;;
47790;SDS011;33547;49.044;1.156;2022-07-12T12:46:22;0.52;;;0.30;;
47790;SDS011;33547;49.044;1.156;2022-07-12T12:48:48;0.47;;;0.43;;
47790;SDS011;33547;49.044;1.156;2022-07-12T12:51:14;0.40;;;0.40;;
47790;SDS011;33547;49.044;1.156;2022-07-12T12:53:41;0.30;;;0.30;;
47790;SDS011;33547;49.044;1.156;2022-07-12T12:56:12;0.40;;;0.40;;
47790;SDS011;33547;49.044;1.156;2022-07-12T12:58:39;0.40;;;0.40;;
47790;SDS011;33547;49.044;1.156;2022-07-12T13:01:06;0.40;;;0.40;;
47790;SDS011;33547;49.044;1.156;2022-07-12T13:03:33;1.63;;;0.40;;
47790;SDS011;33547;49.044;1.156;2022-07-12T13:06:00;0.50;;;0.47;;
47790;SDS011;33547;49.044;1.156;2022-07-12T13:08:27;0.47;;;0.30;;
47790;SDS011;33547;49.044;1.156;2022-07-12T13:10:53;0.60;;;0.60;;
47790;SDS011;33547;49.044;1.156;2022-07-12T13:13:38;0.50;;;0.50;;
47790;SDS011;33547;49.044;1.156;2022-07-12T13:16:05;1.15;;;0.55;;
47790;SDS011;33547;49.044;1.156;2022-07-12T13:18:31;0.52;;;0.50;;
47790;SDS011;33547;49.044;1.156;2022-07-12T13:20:58;0.30;;;0.30;;
47790;SDS011;33547;49.044;1.156;2022-07-12T13:23:24;0.52;;;0.52;;
47790;SDS011;33547;49.044;1.156;2022-07-12T13:25:50;0.47;;;0.47;;
47790;SDS011;33547;49.044;1.156;2022-07-12T13:28:16;1.10;;;0.30;;
47790;SDS011;33547;49.044;1.156;2022-07-12T13:30:41;0.40;;;0.30;;
47790;SDS011;33547;49.044;1.156;2022-07-12T13:33:07;0.30;;;0.30;;
47790;SDS011;33547;49.044;1.156;2022-07-12T13:35:33;0.55;;;0.45;;
47790;SDS011;33547;49.044;1.156;2022-07-12T13:38:00;0.40;;;0.40;;
47790;SDS011;33547;49.044;1.156;2022-07-12T13:40:26;0.35;;;0.35;;
47790;SDS011;33547;49.044;1.156;2022-07-12T13:42:52;0.47;;;0.43;;
47790;SDS011;33547;49.044;1.156;2022-07-12T13:45:19;0.95;;;0.50;;
47790;SDS011;33547;49.044;1.156;2022-07-12T13:47:51;1.08;;;0.30;;
47790;SDS011;33547;49.044;1.156;2022-07-12T13:50:18;0.40;;;0.40;;
47790;SDS011;33547;49.044;1.156;2022-07-12T13:52:47;0.77;;;0.30;;
47790;SDS011;33547;49.044;1.156;2022-07-12T13:55:14;0.57;;;0.50;;
47790;SDS011;33547;49.044;1.156;2022-07-12T13:57:42;0.57;;;0.40;;
47790;SDS011;33547;49.044;1.156;2022-07-12T14:00:12;0.43;;;0.40;;
47790;SDS011;33547;49.044;1.156;2022-07-12T14:02:41;0.35;;;0.35;;
47790;SDS011;33547;49.044;1.156;2022-07-12T14:05:10;0.40;;;0.40;;
47790;SDS011;33547;49.044;1.156;2022-07-12T14:07:37;0.43;;;0.32;;
47790;SDS011;33547;49.044;1.156;2022-07-12T14:10:06;0.95;;;0.40;;
47790;SDS011;33547;49.044;1.156;2022-07-12T14:12:33;0.35;;;0.25;;
47790;SDS011;33547;49.044;1.156;2022-07-12T14:14:59;0.40;;;0.40;;
47790;SDS011;33547;49.044;1.156;2022-07-12T14:20:11;0.30;;;0.30;;
47790;SDS011;33547;49.044;1.156;2022-07-12T14:22:39;0.30;;;0.30;;
47790;SDS011;33547;49.044;1.156;2022-07-12T14:25:06;0.77;;;0.60;;
47790;SDS011;33547;49.044;1.156;2022-07-12T14:27:33;0.40;;;0.35;;
47790;SDS011;33547;49.044;1.156;2022-07-12T14:30:00;0.25;;;0.25;;
47790;SDS011;33547;49.044;1.156;2022-07-12T14:32:27;0.52;;;0.40;;
47790;SDS011;33547;49.044;1.156;2022-07-12T14:34:52;0.35;;;0.30;;
47790;SDS011;33547;49.044;1.156;2022-07-12T14:37:18;0.20;;;0.20;;
47790;SDS011;33547;49.044;1.156;2022-07-12T14:39:44;0.40;;;0.40;;
47790;SDS011;33547;49.044;1.156;2022-07-12T14:42:10;0.55;;;0.30;;
47790;SDS011;33547;49.044;1.156;2022-07-12T14:44:36;0.35;;;0.35;;
47790;SDS011;33547;49.044;1.156;2022-07-12T14:47:02;0.52;;;0.40;;
47790;SDS011;33547;49.044;1.156;2022-07-12T14:49:28;0.30;;;0.30;;
47790;SDS011;33547;49.044;1.156;2022-07-12T14:51:54;0.45;;;0.45;;
47790;SDS011;33547;49.044;1.156;2022-07-12T14:54:21;0.52;;;0.40;;
47790;SDS011;33547;49.044;1.156;2022-07-12T14:56:47;0.38;;;0.38;;
47790;SDS011;33547;49.044;1.156;2022-07-12T14:59:13;0.90;;;0.40;;
47790;SDS011;33547;49.044;1.156;2022-07-12T15:01:38;0.30;;;0.30;;
47790;SDS011;33547;49.044;1.156;2022-07-12T15:04:04;0.30;;;0.30;;
47790;SDS011;33547;49.044;1.156;2022-07-12T15:06:30;0.32;;;0.32;;
47790;SDS011;33547;49.044;1.156;2022-07-12T15:08:56;0.40;;;0.40;;
47790;SDS011;33547;49.044;1.156;2022-07-12T15:11:22;0.20;;;0.20;;
47790;SDS011;33547;49.044;1.156;2022-07-12T15:13:48;0.30;;;0.30;;
47790;SDS011;33547;49.044;1.156;2022-07-12T15:16:14;0.55;;;0.50;;
47790;SDS011;33547;49.044;1.156;2022-07-12T15:18:40;0.40;;;0.40;;
47790;SDS011;33547;49.044;1.156;2022-07-12T15:21:06;0.40;;;0.35;;
47790;SDS011;33547;49.044;1.156;2022-07-12T15:23:32;0.15;;;0.15;;
47790;SDS011;33547;49.044;1.156;2022-07-12T15:25:58;0.25;;;0.25;;
47790;SDS011;33547;49.044;1.156;2022-07-12T15:28:27;0.40;;;0.38;;
47790;SDS011;33547;49.044;1.156;2022-07-12T15:30:54;0.20;;;0.20;;
47790;SDS011;33547;49.044;1.156;2022-07-12T15:33:21;0.40;;;0.40;;